Time;durP1;ratioP1;P1;durP2;ratioP2;P2;SDS_P1;SDS_P2;PMS_P1;PMS_P2;Temp;Humidity;BMP_temperature;BMP_pressure;BME280_temperature;BME280_humidity;BME280_pressure;Samples;Min_cycle;Max_cycle;Signal;HPM_P1;HPM_P2
2023/12/20 00:01:09;;;;;;;1999.90;999.90;;;;;;;11.55;78.12;101421.22;10456449;28;20048;-63
2023/12/20 00:06:12;;;;;;;1999.90;999.90;;;;;;;11.40;78.36;101435.94;10456005;28;20053;-63
2023/12/20 00:11:14;;;;;;;1999.90;999.90;;;;;;;11.69;77.95;101426.59;10455480;28;20472;-63
2023/12/20 00:16:16;;;;;;;1999.90;999.90;;;;;;;11.61;78.09;101434.00;10456600;28;20059;-63
2023/12/20 00:21:19;;;;;;;1999.90;999.90;;;;;;;11.69;77.64;101426.59;10455379;28;20048;-63
2023/12/20 00:26:21;;;;;;;1999.90;999.90;;;;;;;11.91;78.33;101421.09;10456317;28;20049;-63
2023/12/20 00:31:24;;;;;;;1999.90;999.90;;;;;;;11.89;78.28;101423.78;10438665;28;20490;-63
2023/12/20 00:36:26;;;;;;;1999.90;999.90;;;;;;;12.32;74.79;101419.78;10456260;28;20049;-63
2023/12/20 00:41:28;;;;;;;1999.90;999.90;;;;;;;11.76;77.44;101414.00;10456104;28;20045;-63
2023/12/20 00:46:31;;;;;;;1999.90;999.90;;;;;;;11.91;74.40;101415.84;10454768;28;20412;-63
2023/12/20 00:51:33;;;;;;;1999.90;999.90;;;;;;;12.22;73.90;101415.06;10455165;28;20124;-63
2023/12/20 00:56:36;;;;;;;1999.90;999.90;;;;;;;12.05;74.71;101413.34;10455577;28;20060;-63
2023/12/20 01:01:38;;;;;;;1999.90;999.90;;;;;;;11.89;75.04;101421.16;10454481;28;20045;-63
2023/12/20 01:06:41;;;;;;;1999.90;999.90;;;;;;;12.04;74.80;101421.31;10455802;28;20083;-63
2023/12/20 01:11:43;;;;;;;1999.90;999.90;;;;;;;12.24;72.33;101420.22;10455571;28;20103;-63
2023/12/20 01:16:45;;;;;;;1999.90;999.90;;;;;;;11.94;73.35;101418.31;10461028;28;20044;-63
2023/12/20 01:21:48;;;;;;;1999.90;999.90;;;;;;;11.48;74.77;101423.28;10463084;28;20052;-63
2023/12/20 01:26:50;;;;;;;1999.90;999.90;;;;;;;11.62;74.44;101418.19;10445248;28;20053;-63
2023/12/20 01:31:53;;;;;;;1999.90;999.90;;;;;;;11.46;76.21;101420.75;10462823;28;20102;-63
2023/12/20 01:36:55;;;;;;;1999.90;999.90;;;;;;;11.20;75.95;101405.53;10462556;28;20083;-63
2023/12/20 01:41:58;;;;;;;1999.90;999.90;;;;;;;11.58;73.47;101426.28;10462484;28;20045;-63
2023/12/20 01:47:00;;;;;;;1999.90;999.90;;;;;;;11.38;74.90;101420.31;10462657;28;20049;-63
2023/12/20 01:52:03;;;;;;;1999.90;999.90;;;;;;;11.05;75.87;101417.59;10461645;28;20128;-63
2023/12/20 01:57:07;;;;;;;1999.90;999.90;;;;;;;10.84;77.55;101428.19;10461954;28;20048;-65
2023/12/20 02:02:11;;;;;;;1999.90;999.90;;;;;;;10.80;77.79;101439.75;10460833;28;20080;-65
2023/12/20 02:07:14;;;;;;;1999.90;999.90;;;;;;;11.26;76.18;101426.16;10461384;28;20052;-65
2023/12/20 02:12:16;;;;;;;1999.90;999.90;;;;;;;11.77;72.94;101423.56;10460131;28;20132;-65
2023/12/20 02:17:19;;;;;;;1999.90;999.90;;;;;;;10.78;75.86;101431.97;10460843;28;20057;-65
2023/12/20 02:22:21;;;;;;;1999.90;999.90;;;;;;;10.81;76.71;101432.75;10459740;28;20067;-66
2023/12/20 02:27:30;;;;;;;1999.90;999.90;;;;;;;11.64;75.26;101416.34;10459039;28;20049;-65
2023/12/20 02:32:33;;;;;;;1999.90;999.90;;;;;;;11.55;74.97;101415.97;10459304;28;20048;-63
2023/12/20 02:37:35;;;;;;;1999.90;999.90;;;;;;;10.90;76.29;101422.66;10460010;28;20080;-63
2023/12/20 02:42:37;;;;;;;1999.90;999.90;;;;;;;11.40;74.96;101418.47;10460124;28;20049;-63
2023/12/20 02:47:40;;;;;;;1999.90;999.90;;;;;;;10.99;76.61;101417.91;10459880;28;20056;-63
2023/12/20 02:52:46;;;;;;;1999.90;999.90;;;;;;;11.07;77.81;101405.28;10458087;28;20503;-63
2023/12/20 02:57:48;;;;;;;1999.90;999.90;;;;;;;11.15;76.28;101411.00;10458264;28;20044;-63
2023/12/20 03:02:51;;;;;;;1999.90;999.90;;;;;;;11.13;77.16;101395.34;10459300;28;20373;-63
2023/12/20 03:07:53;;;;;;;1999.90;999.90;;;;;;;10.58;79.01;101403.28;10457852;28;20124;-63
2023/12/20 03:12:55;;;;;;;1999.90;999.90;;;;;;;10.84;78.05;101393.31;10458704;28;20051;-63
2023/12/20 03:17:59;;;;;;;1999.90;999.90;;;;;;;10.94;79.06;101384.06;10458913;28;20049;-63
2023/12/20 03:23:01;;;;;;;1999.90;999.90;;;;;;;11.33;77.35;101378.59;10458473;28;20099;-63
2023/12/20 03:28:04;;;;;;;1999.90;999.90;;;;;;;11.02;76.64;101381.06;10458089;28;20056;-63
2023/12/20 03:33:07;;;;;;;1999.90;999.90;;;;;;;11.10;78.18;101390.25;10458130;28;20053;-63
2023/12/20 03:38:10;;;;;;;1999.90;999.90;;;;;;;10.88;78.47;101387.84;10456999;28;20076;-63
2023/12/20 03:43:12;;;;;;;1999.90;999.90;;;;;;;10.78;79.13;101370.88;10457656;28;20399;-63
2023/12/20 03:48:14;;;;;;;1999.90;999.90;;;;;;;10.69;80.39;101360.84;10456195;28;20438;-63
2023/12/20 03:53:17;;;;;;;1999.90;999.90;;;;;;;10.70;78.15;101378.25;10456050;28;20083;-63
2023/12/20 03:58:19;;;;;;;1999.90;999.90;;;;;;;10.75;76.76;101381.50;10457182;28;20385;-63
2023/12/20 04:03:22;;;;;;;1999.90;999.90;;;;;;;11.07;76.85;101377.28;10456806;28;20439;-63
2023/12/20 04:08:24;;;;;;;1999.90;999.90;;;;;;;10.51;79.45;101392.25;10456895;28;20051;-63
2023/12/20 04:13:26;;;;;;;1999.90;999.90;;;;;;;11.45;75.63;101392.84;10456498;28;20049;-63
2023/12/20 04:18:29;;;;;;;1999.90;999.90;;;;;;;10.86;78.17;101379.22;10456787;28;20052;-63
2023/12/20 04:23:31;;;;;;;1999.90;999.90;;;;;;;10.43;79.38;101380.44;10456599;28;20053;-63
2023/12/20 04:28:34;;;;;;;1999.90;999.90;;;;;;;10.96;77.13;101372.59;10456260;28;20064;-63
2023/12/20 04:33:36;;;;;;;1999.90;999.90;;;;;;;11.23;76.82;101380.00;10456777;28;20064;-63
2023/12/20 04:38:39;;;;;;;1999.90;999.90;;;;;;;11.06;78.77;101382.59;10456078;28;20484;-63
2023/12/20 04:43:41;;;;;;;1999.90;999.90;;;;;;;11.52;75.31;101369.78;10456662;28;20063;-63
2023/12/20 04:48:43;;;;;;;1999.90;999.90;;;;;;;11.38;76.48;101380.13;10459974;28;20128;-63
2023/12/20 04:53:46;;;;;;;1999.90;999.90;;;;;;;12.00;73.11;101383.88;10463719;28;20135;-63
2023/12/20 04:58:48;;;;;;;1999.90;999.90;;;;;;;11.42;75.13;101377.28;10462869;28;20048;-63
2023/12/20 05:03:51;;;;;;;1999.90;999.90;;;;;;;10.95;76.30;101381.38;10463748;28;20045;-63
2023/12/20 05:08:53;;;;;;;1999.90;999.90;;;;;;;11.54;74.92;101370.53;10463525;28;20059;-63
2023/12/20 05:13:56;;;;;;;1999.90;999.90;;;;;;;12.06;74.05;101374.81;10463463;28;20053;-63
2023/12/20 05:19:00;;;;;;;1999.90;999.90;;;;;;;11.51;76.03;101362.84;10463490;28;20045;-63
2023/12/20 05:24:03;;;;;;;1999.90;999.90;;;;;;;11.43;76.79;101357.13;10463055;28;20403;-63
2023/12/20 05:29:05;;;;;;;1999.90;999.90;;;;;;;11.17;76.64;101355.88;10462868;28;20399;-63
2023/12/20 05:34:08;;;;;;;1999.90;999.90;;;;;;;11.27;76.25;101351.84;10462802;28;20131;-63
2023/12/20 05:39:10;;;;;;;1999.90;999.90;;;;;;;11.28;77.41;101338.66;10462850;28;20099;-63
2023/12/20 05:44:13;;;;;;;1999.90;999.90;;;;;;;10.93;78.62;101358.81;10462451;28;20055;-63
2023/12/20 05:49:15;;;;;;;1999.90;999.90;;;;;;;12.73;71.55;101353.59;10462118;28;20055;-63
2023/12/20 05:54:17;;;;;;;1999.90;999.90;;;;;;;11.97;73.53;101362.19;10461833;28;20056;-65
2023/12/20 05:59:20;;;;;;;1999.90;999.90;;;;;;;11.34;75.38;101374.19;10459864;28;20083;-65
2023/12/20 06:04:22;;;;;;;1999.90;999.90;;;;;;;11.90;73.42;101369.50;10460291;28;20053;-65
2023/12/20 06:09:26;;;;;;;1999.90;999.90;;;;;;;11.33;74.99;101375.09;10461296;28;20052;-63
2023/12/20 06:14:31;;;;;;;1999.90;999.90;;;;;;;12.08;74.28;101380.81;10461121;28;20080;-63
2023/12/20 06:19:34;;;;;;;1999.90;999.90;;;;;;;11.87;75.29;101374.94;10460788;28;20048;-63
2023/12/20 06:24:36;;;;;;;1999.90;999.90;;;;;;;11.41;76.68;101369.47;10460810;28;20049;-63
2023/12/20 06:29:40;;;;;;;1999.90;999.90;;;;;;;11.43;74.38;101373.72;10460403;28;20472;-63
2023/12/20 06:34:43;;;;;;;1999.90;999.90;;;;;;;11.73;75.56;101367.78;10460430;28;20127;-63
2023/12/20 06:39:46;;;;;;;1999.90;999.90;;;;;;;11.88;76.01;101355.63;10459988;28;20133;-63
2023/12/20 06:44:48;;;;;;;1999.90;999.90;;;;;;;11.98;74.98;101354.22;10459985;28;20404;-63
2023/12/20 06:49:51;;;;;;;1999.90;999.90;;;;;;;11.70;74.62;101371.44;10459739;28;20052;-63
2023/12/20 06:54:53;;;;;;;1999.90;999.90;;;;;;;11.63;75.37;101363.97;10459545;28;20068;-63
2023/12/20 06:59:56;;;;;;;1999.90;999.90;;;;;;;11.71;74.92;101357.38;10458087;28;20099;-63
2023/12/20 07:04:58;;;;;;;1999.90;999.90;;;;;;;11.69;74.71;101355.78;10459153;28;20057;-63
2023/12/20 07:10:00;;;;;;;1999.90;999.90;;;;;;;11.55;74.94;101347.78;10458404;28;20053;-63
2023/12/20 07:15:03;;;;;;;1999.90;999.90;;;;;;;11.45;75.00;101347.44;10458368;28;20056;-63
2023/12/20 07:20:09;;;;;;;1999.90;999.90;;;;;;;11.67;74.86;101342.75;10458641;28;20080;-63
2023/12/20 07:25:12;;;;;;;1999.90;999.90;;;;;;;11.42;74.57;101350.22;10458278;28;20439;-63
2023/12/20 07:30:14;;;;;;;1999.90;999.90;;;;;;;11.41;75.34;101356.38;10458076;28;20068;-63
2023/12/20 07:35:17;;;;;;;1999.90;999.90;;;;;;;11.70;74.67;101350.44;10458501;28;20090;-63
2023/12/20 07:40:19;;;;;;;1999.90;999.90;;;;;;;12.01;72.32;101355.84;10456486;28;20045;-63
2023/12/20 07:45:22;;;;;;;1999.90;999.90;;;;;;;11.68;74.00;101348.81;10457748;28;20052;-63
2023/12/20 07:50:24;;;;;;;1999.90;999.90;;;;;;;11.85;74.58;101346.16;10457244;28;20136;-63
2023/12/20 07:55:27;;;;;;;1999.90;999.90;;;;;;;11.90;73.80;101338.88;10457215;28;20060;-63
2023/12/20 08:00:30;;;;;;;1999.90;999.90;;;;;;;11.29;76.52;101344.75;10457116;28;20049;-63
2023/12/20 08:05:33;;;;;;;1999.90;999.90;;;;;;;11.95;74.08;101351.78;10456839;28;20049;-63
2023/12/20 08:10:35;;;;;;;1999.90;999.90;;;;;;;11.53;74.16;101369.69;10455632;28;20060;-63
2023/12/20 08:15:38;;;;;;;1999.90;999.90;;;;;;;11.44;75.62;101362.31;10455540;28;20051;-63
2023/12/20 08:20:40;;;;;;;1999.90;999.90;;;;;;;12.19;72.19;101373.22;10456487;28;20385;-63
2023/12/20 08:25:43;;;;;;;1999.90;999.90;;;;;;;11.86;74.18;101368.81;10456126;28;20076;-63
2023/12/20 08:30:45;;;;;;;1999.90;999.90;;;;;;;11.44;76.38;101370.16;10455105;28;20472;-63
2023/12/20 08:35:48;;;;;;;1999.90;999.90;;;;;;;11.69;75.57;101366.28;10456260;28;20060;-63
2023/12/20 08:40:50;;;;;;;1999.90;999.90;;;;;;;11.49;75.15;101352.41;10456471;28;20115;-65
2023/12/20 08:45:53;;;;;;;1999.90;999.90;;;;;;;11.42;75.75;101358.91;10437126;28;20512;-65
2023/12/20 08:50:55;;;;;;;1999.90;999.90;;;;;;;11.22;75.87;101352.06;10455640;28;20041;-65
2023/12/20 08:56:01;;;;;;;1999.90;999.90;;;;;;;11.44;74.42;101345.72;10431174;28;20096;-63
2023/12/20 09:01:03;;;;;;;1999.90;999.90;;;;;;;11.67;75.16;101350.59;10413377;28;20108;-63
2023/12/20 09:06:06;;;;;;;1999.90;999.90;;;;;;;11.53;76.45;101343.47;10414453;28;20053;-63
2023/12/20 09:11:08;;;;;;;1999.90;999.90;;;;;;;11.14;75.31;101331.50;10413952;28;20124;-63
2023/12/20 09:16:12;;;;;;;1999.90;999.90;;;;;;;11.29;74.51;101326.41;10414168;28;20443;-63
2023/12/20 09:21:15;;;;;;;1999.90;999.90;;;;;;;12.36;72.01;101340.78;10414319;28;20091;-63
2023/12/20 09:26:17;;;;;;;1999.90;999.90;;;;;;;12.18;72.81;101353.13;10414063;28;20133;-63
2023/12/20 09:31:20;;;;;;;1999.90;999.90;;;;;;;10.96;77.55;101343.78;10413989;28;20140;-63
2023/12/20 09:36:22;;;;;;;1999.90;999.90;;;;;;;11.60;75.38;101344.00;10418277;28;20422;-63
2023/12/20 09:41:26;;;;;;;1999.90;999.90;;;;;;;11.77;76.62;101343.09;10420968;28;20529;-63
2023/12/20 09:46:31;;;;;;;1999.90;999.90;;;;;;;11.38;79.00;101343.41;10420068;28;20057;-62
2023/12/20 09:51:34;;;;;;;1999.90;999.90;;;;;;;10.92;78.91;101354.47;10403349;28;20464;-63
2023/12/20 09:56:38;;;;;;;1999.90;999.90;;;;;;;11.89;78.15;101342.44;10419310;28;20049;-63
2023/12/20 10:01:41;;;;;;;1999.90;999.90;;;;;;;11.16;77.05;101352.38;10420839;28;20056;-63
2023/12/20 10:06:44;;;;;;;1999.90;999.90;;;;;;;12.12;76.53;101345.63;10423611;22;20057;-61
2023/12/20 10:11:46;;;;;;;1999.90;999.90;;;;;;;12.04;75.65;101348.66;10377951;28;20121;-61
2023/12/20 10:16:49;;;;;;;1999.90;999.90;;;;;;;11.68;76.98;101347.06;10377690;28;20054;-61
2023/12/20 10:21:52;;;;;;;1999.90;999.90;;;;;;;11.96;76.12;101337.72;10379031;28;20519;-61
2023/12/20 10:27:08;;;;;;;1999.90;999.90;;;;;;;12.14;76.98;101346.38;10377460;28;20104;-61
2023/12/20 10:32:24;;;;;;;1999.90;999.90;;;;;;;11.67;78.21;101355.84;10377351;28;20121;-61
2023/12/20 10:37:27;;;;;;;1999.90;999.90;;;;;;;12.58;75.38;101344.81;10377567;28;20049;-61
2023/12/20 10:42:30;;;;;;;1999.90;999.90;;;;;;;11.71;78.93;101356.53;10377990;28;20052;-61
2023/12/20 10:47:33;;;;;;;1999.90;999.90;;;;;;;11.90;76.21;101338.88;10376746;28;20133;-61
2023/12/20 10:52:36;;;;;;;1999.90;999.90;;;;;;;12.37;76.15;101326.72;10377006;28;20045;-62
2023/12/20 10:57:39;;;;;;;1999.90;999.90;;;;;;;11.99;77.00;101340.19;10376231;28;20056;-61
2023/12/20 11:02:41;;;;;;;1999.90;999.90;;;;;;;12.29;77.51;101325.44;10375865;28;20126;-62
2023/12/20 11:07:50;;;;;;;1999.90;999.90;;;;;;;12.56;77.35;101315.16;10376005;28;20148;-61
2023/12/20 11:13:16;;;;;;;1999.90;999.90;;;;;;;12.63;76.49;101306.81;10375574;28;20050;-62
2023/12/20 11:18:19;;;;;;;1999.90;999.90;;;;;;;12.34;76.31;101303.25;10376737;28;20058;-61
2023/12/20 11:23:21;;;;;;;1999.90;999.90;;;;;;;12.95;74.06;101290.13;10376465;28;20129;-61
2023/12/20 11:28:26;;;;;;;1999.90;999.90;;;;;;;12.48;77.41;101283.25;10374921;28;20054;-62
2023/12/20 11:33:37;;;;;;;1999.90;999.90;;;;;;;13.06;75.62;101281.56;10375407;28;20053;-61
2023/12/20 11:38:49;;;;;;;1999.90;999.90;;;;;;;13.56;72.58;101275.03;10375674;28;20493;-61
2023/12/20 11:43:54;;;;;;;1999.90;999.90;;;;;;;13.34;73.18;101281.63;10374631;28;20050;-65
2023/12/20 11:48:56;;;;;;;1999.90;999.90;;;;;;;13.03;73.69;101280.00;10374603;28;20054;-65
2023/12/20 11:53:59;;;;;;;1999.90;999.90;;;;;;;12.75;73.60;101279.00;10375457;28;20089;-65
2023/12/20 11:59:01;;;;;;;1999.90;999.90;;;;;;;13.11;73.94;101272.50;10374524;28;20052;-65
2023/12/20 12:04:21;;;;;;;1999.90;999.90;;;;;;;13.35;73.12;101272.81;10373972;28;20049;-65
2023/12/20 12:09:24;;;;;;;1999.90;999.90;;;;;;;13.48;72.91;101272.91;10374811;28;20073;-65
2023/12/20 12:14:26;;;;;;;1999.90;999.90;;;;;;;13.58;71.69;101262.63;10374001;28;20408;-65
2023/12/20 12:19:29;;;;;;;1999.90;999.90;;;;;;;14.14;69.75;101241.53;10373252;28;20046;-65
2023/12/20 12:24:31;;;;;;;1999.90;999.90;;;;;;;13.64;72.72;101243.84;10374659;28;20568;-67
2023/12/20 12:29:34;;;;;;;1999.90;999.90;;;;;;;13.15;74.12;101247.69;10373233;28;20434;-67
2023/12/20 12:34:37;;;;;;;1999.90;999.90;;;;;;;13.72;72.90;101240.72;10372990;28;20050;-65
2023/12/20 12:39:41;;;;;;;1999.90;999.90;;;;;;;13.08;73.01;101251.66;10374019;28;20068;-65
2023/12/20 12:44:43;;;;;;;1999.90;999.90;;;;;;;12.63;75.65;101235.91;10374221;28;20077;-65
2023/12/20 12:49:45;;;;;;;1999.90;999.90;;;;;;;13.60;72.50;101228.34;10374058;28;20046;-65
2023/12/20 12:54:48;;;;;;;1999.90;999.90;;;;;;;14.01;71.07;101199.34;10373914;28;20065;-65
2023/12/20 12:59:50;;;;;;;1999.90;999.90;;;;;;;13.77;70.80;101204.44;10372477;28;20486;-65
2023/12/20 13:04:53;;;;;;;1999.90;999.90;;;;;;;13.42;73.39;101197.00;10372601;28;20054;-65
2023/12/20 13:09:55;;;;;;;1999.90;999.90;;;;;;;12.95;74.23;101204.22;10377685;28;20547;-65
2023/12/20 13:14:58;;;;;;;1999.90;999.90;;;;;;;14.00;71.72;101181.03;10382207;28;20065;-65
2023/12/20 13:20:00;;;;;;;1999.90;999.90;;;;;;;13.41;73.61;101170.78;10381167;28;20129;-65
2023/12/20 13:25:03;;;;;;;1999.90;999.90;;;;;;;13.00;76.47;101169.78;10363612;28;20575;-65
2023/12/20 13:30:07;;;;;;;1999.90;999.90;;;;;;;14.61;71.37;101161.16;10380870;28;20100;-65
2023/12/20 13:35:10;;;;;;;1999.90;999.90;;;;;;;13.29;73.96;101157.44;10380682;28;20049;-65
2023/12/20 13:40:12;;;;;;;1999.90;999.90;;;;;;;13.93;68.95;101146.38;10380450;28;20045;-65
2023/12/20 13:45:15;;;;;;;1999.90;999.90;;;;;;;13.49;74.30;101158.00;10380141;28;20054;-65
2023/12/20 13:50:17;;;;;;;1999.90;999.90;;;;;;;13.44;74.65;101155.66;10379065;28;20053;-65
2023/12/20 13:55:22;;;;;;;1999.90;999.90;;;;;;;14.12;70.72;101136.31;10378702;28;20133;-65
2023/12/20 14:00:24;;;;;;;1999.90;999.90;;;;;;;13.46;73.82;101135.34;10379496;28;20555;-65
2023/12/20 14:05:28;;;;;;;1999.90;999.90;;;;;;;14.15;71.46;101129.16;10378356;28;20054;-65
2023/12/20 14:10:31;;;;;;;1999.90;999.90;;;;;;;13.81;73.03;101136.66;10378885;28;20475;-65
2023/12/20 14:15:36;;;;;;;1999.90;999.90;;;;;;;13.58;73.79;101117.94;10394238;28;20424;-65
2023/12/20 14:20:39;;;;;;;1999.90;999.90;;;;;;;13.74;72.71;101125.69;10378173;28;20096;-65
2023/12/20 14:25:42;;;;;;;1999.90;999.90;;;;;;;14.36;69.32;101125.06;10378926;28;20050;-65
2023/12/20 14:30:54;;;;;;;1999.90;999.90;;;;;;;13.83;72.34;101134.75;10378421;28;20042;-65
2023/12/20 14:35:57;;;;;;;1999.90;999.90;;;;;;;14.19;71.40;101134.13;10378434;28;20061;-65
2023/12/20 14:40:59;;;;;;;1999.90;999.90;;;;;;;14.59;69.15;101147.25;10377924;28;20383;-65
2023/12/20 14:46:02;;;;;;;1999.90;999.90;;;;;;;13.59;71.63;101153.84;10376650;28;20116;-65
2023/12/20 14:51:04;;;;;;;1999.90;999.90;;;;;;;13.33;73.67;101160.75;10377695;28;20042;-65
2023/12/20 14:56:07;;;;;;;1999.90;999.90;;;;;;;13.68;72.37;101149.75;10377459;28;20110;-65
2023/12/20 15:01:09;;;;;;;1999.90;999.90;;;;;;;13.83;71.59;101143.50;10376206;28;20056;-65
2023/12/20 15:06:12;;;;;;;1999.90;999.90;;;;;;;13.37;72.39;101128.91;10377127;28;20050;-65
2023/12/20 15:11:17;;;;;;;1999.90;999.90;;;;;;;13.39;73.08;101123.56;10375590;28;20046;-65
2023/12/20 15:16:19;;;;;;;1999.90;999.90;;;;;;;12.81;74.34;101131.50;10376801;28;20049;-65
2023/12/20 15:21:30;;;;;;;1999.90;999.90;;;;;;;13.15;72.95;101129.41;10376419;28;20050;-65
2023/12/20 15:26:33;;;;;;;1999.90;999.90;;;;;;;13.27;73.24;101140.09;10376627;28;20046;-65
2023/12/20 15:31:42;;;;;;;1999.90;999.90;;;;;;;13.86;70.38;101132.78;10375290;28;20221;-65
2023/12/20 15:36:46;;;;;;;1999.90;999.90;;;;;;;13.07;73.29;101136.06;10376677;28;20061;-65
2023/12/20 15:41:49;;;;;;;1999.90;999.90;;;;;;;13.56;71.33;101128.56;10375740;28;20229;-65
2023/12/20 15:46:52;;;;;;;1999.90;999.90;;;;;;;13.31;71.67;101118.72;10375624;28;20390;-65
2023/12/20 15:51:54;;;;;;;1999.90;999.90;;;;;;;13.41;71.94;101108.50;10374454;28;20129;-65
2023/12/20 15:56:57;;;;;;;1999.90;999.90;;;;;;;13.37;73.30;101115.75;10375413;28;20115;-65
2023/12/20 16:01:59;;;;;;;1999.90;999.90;;;;;;;13.66;72.26;101099.88;10375290;28;20108;-65
2023/12/20 16:07:02;;;;;;;1999.90;999.90;;;;;;;13.27;74.43;101090.97;10374768;28;20065;-65
2023/12/20 16:12:05;;;;;;;1999.90;999.90;;;;;;;13.13;73.26;101081.34;10374982;28;20125;-65
2023/12/20 16:17:07;;;;;;;1999.90;999.90;;;;;;;12.91;75.93;101073.09;10374700;28;20060;-65
2023/12/20 16:22:10;;;;;;;1999.90;999.90;;;;;;;12.92;75.06;101107.16;10374715;28;20046;-65
2023/12/20 16:27:12;;;;;;;1999.90;999.90;;;;;;;13.49;75.41;101077.28;10374584;28;20053;-65
2023/12/20 16:32:14;;;;;;;1999.90;999.90;;;;;;;13.10;76.23;101064.91;10373227;28;20081;-65
2023/12/20 16:37:17;;;;;;;1999.90;999.90;;;;;;;13.09;75.98;101048.28;10374883;28;20129;-65
2023/12/20 16:42:19;;;;;;;1999.90;999.90;;;;;;;12.73;77.58;101043.59;10374106;28;20046;-65
2023/12/20 16:47:22;;;;;;;1999.90;999.90;;;;;;;13.13;78.10;101035.78;10381162;28;20420;-65
2023/12/20 16:52:24;;;;;;;1999.90;999.90;;;;;;;13.47;75.11;101036.28;10381161;28;20052;-66
2023/12/20 16:57:26;;;;;;;1999.90;999.90;;;;;;;13.56;75.21;101020.69;10382197;28;20053;-65
2023/12/20 17:02:29;;;;;;;1999.90;999.90;;;;;;;13.43;75.85;101011.09;10380738;28;20052;-65
2023/12/20 17:07:33;;;;;;;1999.90;999.90;;;;;;;13.01;77.22;101000.63;10381474;28;20057;-66
2023/12/20 17:12:35;;;;;;;1999.90;999.90;;;;;;;12.53;78.40;101005.44;10381889;28;20084;-65
2023/12/20 17:17:38;;;;;;;1999.90;999.90;;;;;;;13.25;75.83;100971.91;10381201;28;20378;-66
2023/12/20 17:22:40;;;;;;;1999.90;999.90;;;;;;;13.47;76.37;100987.13;10380030;28;20078;-65
2023/12/20 17:27:45;;;;;;;1999.90;999.90;;;;;;;13.29;77.26;100962.84;10379950;28;20137;-65
2023/12/20 17:32:49;;;;;;;1999.90;999.90;;;;;;;13.68;74.10;100960.31;10380881;28;20049;-65
2023/12/20 17:37:52;;;;;;;1999.90;999.90;;;;;;;13.30;75.98;100955.84;10381210;28;20061;-65
2023/12/20 17:42:55;;;;;;;1999.90;999.90;;;;;;;13.21;78.42;100965.16;10379602;28;20088;-65
2023/12/20 17:47:58;;;;;;;1999.90;999.90;;;;;;;13.44;77.86;100954.94;10380318;28;20125;-65
2023/12/20 17:53:00;;;;;;;1999.90;999.90;;;;;;;13.38;77.12;100949.16;10378846;28;20489;-65
2023/12/20 17:58:03;;;;;;;1999.90;999.90;;;;;;;14.36;74.23;100934.59;10378695;28;20413;-65
2023/12/20 18:03:05;;;;;;;1999.90;999.90;;;;;;;13.33;77.56;100934.59;10379688;28;20133;-65
2023/12/20 18:08:08;;;;;;;1999.90;999.90;;;;;;;13.35;80.19;100935.38;10378237;28;20093;-65
2023/12/20 18:13:10;;;;;;;1999.90;999.90;;;;;;;13.98;77.64;100914.44;10379144;28;20433;-65
2023/12/20 18:18:13;;;;;;;1999.90;999.90;;;;;;;13.23;80.33;100921.22;10379521;28;20054;-65
2023/12/20 18:23:15;;;;;;;1999.90;999.90;;;;;;;13.88;78.22;100919.47;10377491;28;20477;-65
2023/12/20 18:28:18;;;;;;;1999.90;999.90;;;;;;;13.90;78.58;100893.91;10378392;28;20115;-65
2023/12/20 18:33:22;;;;;;;1999.90;999.90;;;;;;;13.31;80.20;100900.47;10378433;28;20046;-65
2023/12/20 18:38:28;;;;;;;1999.90;999.90;;;;;;;13.04;80.97;100892.66;10378264;28;20053;-65
2023/12/20 18:43:31;;;;;;;1999.90;999.90;;;;;;;13.01;81.48;100885.84;10376784;28;20046;-65
2023/12/20 18:48:33;;;;;;;1999.90;999.90;;;;;;;13.77;78.83;100883.41;10377981;28;20160;-65
2023/12/20 18:53:36;;;;;;;1999.90;999.90;;;;;;;13.51;77.92;100874.66;10376900;28;20042;-65
2023/12/20 18:58:39;;;;;;;1999.90;999.90;;;;;;;14.05;77.17;100863.84;10377341;28;20507;-65
2023/12/20 19:03:41;;;;;;;1999.90;999.90;;;;;;;13.19;81.58;100846.09;10375976;28;20390;-65
2023/12/20 19:08:49;;;;;;;1999.90;999.90;;;;;;;12.86;82.64;100855.31;10375555;28;20471;-65
2023/12/20 19:13:52;;;;;;;1999.90;999.90;;;;;;;13.87;79.08;100837.06;10377082;28;20473;-65
2023/12/20 19:18:54;;;;;;;1999.90;999.90;;;;;;;13.43;79.92;100848.91;10376630;28;20072;-65
2023/12/20 19:23:56;;;;;;;1999.90;999.90;;;;;;;13.85;78.02;100836.34;10376594;28;20049;-65
2023/12/20 19:28:59;;;;;;;1999.90;999.90;;;;;;;13.74;78.79;100817.81;10376465;28;20128;-65
2023/12/20 19:34:01;;;;;;;1999.90;999.90;;;;;;;13.49;79.46;100826.59;10374897;28;20436;-65
2023/12/20 19:39:04;;;;;;;1999.90;999.90;;;;;;;13.00;81.85;100807.91;10376144;28;20054;-65
2023/12/20 19:44:08;;;;;;;1999.90;999.90;;;;;;;13.86;77.33;100792.44;10375724;28;20104;-65
2023/12/20 19:49:11;;;;;;;1999.90;999.90;;;;;;;14.00;77.91;100789.63;10375747;28;20054;-65
2023/12/20 19:54:13;;;;;;;1999.90;999.90;;;;;;;13.83;76.98;100785.59;10375494;28;20050;-65
2023/12/20 19:59:15;;;;;;;1999.90;999.90;;;;;;;13.10;79.96;100804.69;10375469;28;20054;-65
2023/12/20 20:04:18;;;;;;;1999.90;999.90;;;;;;;14.05;75.58;100787.50;10375109;28;20060;-65
2023/12/20 20:09:21;;;;;;;1999.90;999.90;;;;;;;13.42;79.68;100770.13;10374815;28;20081;-65
2023/12/20 20:14:27;;;;;;;1999.90;999.90;;;;;;;13.65;77.62;100771.09;10374898;28;20052;-65
2023/12/20 20:19:29;;;;;;;1999.90;999.90;;;;;;;13.15;79.70;100765.78;10374278;28;20060;-65
2023/12/20 20:24:32;;;;;;;1999.90;999.90;;;;;;;13.92;78.49;100768.31;10374716;28;20057;-65
2023/12/20 20:29:34;;;;;;;1999.90;999.90;;;;;;;13.48;79.32;100764.41;10375136;28;20073;-65
2023/12/20 20:34:37;;;;;;;1999.90;999.90;;;;;;;13.73;78.54;100767.00;10374302;28;20050;-65
2023/12/20 20:39:39;;;;;;;1999.90;999.90;;;;;;;13.95;77.50;100760.19;10357140;28;20145;-65
2023/12/20 20:44:42;;;;;;;1999.90;999.90;;;;;;;14.04;76.85;100779.75;10374053;28;20052;-65
2023/12/20 20:49:44;;;;;;;1999.90;999.90;;;;;;;13.67;81.30;100779.75;10374202;28;20054;-65
2023/12/20 20:54:46;;;;;;;1999.90;999.90;;;;;;;13.75;81.87;100773.00;10373934;28;20474;-65
2023/12/20 20:59:49;;;;;;;1999.90;999.90;;;;;;;13.99;81.53;100759.03;10372920;28;20056;-65
2023/12/20 21:04:51;;;;;;;1999.90;999.90;;;;;;;13.31;84.94;100750.59;10373879;28;20048;-65
2023/12/20 21:09:54;;;;;;;1999.90;999.90;;;;;;;13.93;84.19;100739.22;10372152;28;20061;-66
2023/12/20 21:14:57;;;;;;;1999.90;999.90;;;;;;;13.62;84.95;100739.78;10372424;28;20054;-65
2023/12/20 21:19:59;;;;;;;1999.90;999.90;;;;;;;13.51;86.58;100751.88;10373415;28;20046;-66
2023/12/20 21:25:05;;;;;;;1999.90;999.90;;;;;;;13.68;85.54;100705.94;10373541;28;20053;-65
2023/12/20 21:30:11;;;;;;;1999.90;999.90;;;;;;;13.64;87.20;100709.75;10373133;28;20058;-66
2023/12/20 21:35:14;;;;;;;1999.90;999.90;;;;;;;13.79;85.44;100709.63;10380945;28;20062;-65
2023/12/20 21:40:17;;;;;;;1999.90;999.90;;;;;;;14.17;83.10;100716.50;10379264;28;20479;-65
2023/12/20 21:45:20;;;;;;;1999.90;999.90;;;;;;;14.04;83.07;100700.78;10380316;28;20046;-66
2023/12/20 21:50:22;;;;;;;1999.90;999.90;;;;;;;13.48;87.09;100696.03;10380216;28;20056;-65
2023/12/20 21:55:25;;;;;;;1999.90;999.90;;;;;;;14.32;83.87;100675.84;10378852;28;20049;-66